createdAt,value
2023-02-24T00:02:15.126Z,138.93
2023-02-24T00:04:42.726Z,135.90
2023-02-24T00:07:12.907Z,127.55
2023-02-24T00:09:40.571Z,125.47
2023-02-24T00:12:13.315Z,123.15
2023-02-24T00:14:43.976Z,146.25
2023-02-24T00:17:15.456Z,138.48
2023-02-24T00:19:43.312Z,146.93
2023-02-24T00:22:10.784Z,147.85
2023-02-24T00:24:38.252Z,145.30
2023-02-24T00:27:07.866Z,134.63
2023-02-24T00:29:40.866Z,137.77
2023-02-24T00:32:12.611Z,137.52
2023-02-24T00:34:43.188Z,135.23
2023-02-24T00:37:12.116Z,142.93
2023-02-24T00:39:41.663Z,145.45
2023-02-24T00:42:11.684Z,151.85
2023-02-24T00:44:50.611Z,148.35
2023-02-24T00:47:18.146Z,151.23
2023-02-24T00:49:46.471Z,151.52
2023-02-24T00:52:22.981Z,157.95
2023-02-24T00:54:50.876Z,164.15
2023-02-24T00:57:21.440Z,147.25
2023-02-24T00:59:51.870Z,155.10
2023-02-24T01:02:20.608Z,160.80
2023-02-24T01:04:49.943Z,159.60
2023-02-24T01:07:17.473Z,164.98
2023-02-24T01:09:45.099Z,159.55
2023-02-24T01:12:22.550Z,155.82
2023-02-24T01:14:51.911Z,154.95
2023-02-24T01:17:21.375Z,148.90
2023-02-24T01:19:50.284Z,152.20
2023-02-24T01:22:20.945Z,148.00
2023-02-24T01:24:49.166Z,161.88
2023-02-24T01:27:18.966Z,167.77
2023-02-24T01:29:49.730Z,148.68
2023-02-24T01:32:21.302Z,146.80
2023-02-24T01:34:54.122Z,150.30
2023-02-24T01:37:21.954Z,149.50
2023-02-24T01:39:50.330Z,149.82
2023-02-24T01:42:21.680Z,141.57
2023-02-24T01:44:51.917Z,142.43
2023-02-24T01:47:23.744Z,144.90
2023-02-24T01:49:54.399Z,146.10
2023-02-24T01:52:27.001Z,140.48
2023-02-24T01:55:03.055Z,142.35
2023-02-24T01:57:36.032Z,148.55
2023-02-24T02:00:30.362Z,143.35
2023-02-24T02:03:02.362Z,147.40
2023-02-24T02:05:31.830Z,110.43
2023-02-24T02:08:03.005Z,138.73
2023-02-24T02:10:32.905Z,137.13
2023-02-24T02:13:04.970Z,139.95
2023-02-24T02:15:45.788Z,132.55
2023-02-24T02:18:37.437Z,132.77
2023-02-24T02:21:26.088Z,150.73
2023-02-24T02:24:13.517Z,134.73
2023-02-24T02:27:07.707Z,134.52
2023-02-24T02:30:14.426Z,140.63
2023-02-24T02:32:52.630Z,134.07
2023-02-24T02:35:40.729Z,138.95
2023-02-24T02:38:17.976Z,132.40
2023-02-24T02:41:03.455Z,141.18
2023-02-24T02:43:49.032Z,132.20
2023-02-24T02:46:34.735Z,138.38
2023-02-24T02:49:12.946Z,126.72
2023-02-24T02:51:46.928Z,123.75
2023-02-24T02:54:45.522Z,129.73
2023-02-24T02:57:23.463Z,128.50
2023-02-24T03:00:00.352Z,142.50
2023-02-24T03:02:38.287Z,133.32
2023-02-24T03:05:10.920Z,140.07
2023-02-24T03:07:45.395Z,122.68
2023-02-24T03:10:21.014Z,134.02
2023-02-24T03:12:53.498Z,138.10
2023-02-24T03:15:23.374Z,134.32
2023-02-24T03:18:04.302Z,141.95
2023-02-24T03:21:01.953Z,143.93
2023-02-24T03:23:32.104Z,143.73
2023-02-24T03:26:10.397Z,147.63
2023-02-24T03:28:44.680Z,138.88
2023-02-24T03:31:35.700Z,145.77
2023-02-24T03:34:12.456Z,134.23
2023-02-24T03:36:40.970Z,150.65
2023-02-24T03:39:12.290Z,140.23
2023-02-24T03:42:12.369Z,142.63
2023-02-24T03:44:39.861Z,133.88
2023-02-24T03:47:09.614Z,145.45
2023-02-24T03:49:43.575Z,143.32
2023-02-24T03:52:47.385Z,150.85
2023-02-24T03:55:37.777Z,143.45
2023-02-24T03:58:12.803Z,135.30
2023-02-24T04:01:10.761Z,126.25
2023-02-24T04:04:06.068Z,140.95
2023-02-24T04:06:45.429Z,155.45
2023-02-24T04:09:15.705Z,156.18
2023-02-24T04:11:59.669Z,160.73
2023-02-24T04:14:42.252Z,160.68
2023-02-24T04:17:32.970Z,171.52
2023-02-24T04:20:16.700Z,170.85
2023-02-24T04:22:55.199Z,163.98
2023-02-24T04:25:25.790Z,172.60
2023-02-24T04:27:58.472Z,169.73
2023-02-24T04:30:30.143Z,175.38
2023-02-24T04:32:58.352Z,171.23
2023-02-24T04:35:29.546Z,178.45
2023-02-24T04:37:57.558Z,172.93
2023-02-24T04:40:25.945Z,170.45
2023-02-24T04:42:54.469Z,162.45
2023-02-24T04:45:29.900Z,170.50
2023-02-24T04:48:02.197Z,161.55
2023-02-24T04:50:35.412Z,169.32
2023-02-24T04:53:07.290Z,161.95
2023-02-24T04:55:40.478Z,161.25
2023-02-24T04:58:11.317Z,152.15
2023-02-24T05:00:41.631Z,152.05
2023-02-24T05:03:12.161Z,154.82
2023-02-24T05:05:42.918Z,149.52
2023-02-24T05:08:10.889Z,145.38
2023-02-24T05:10:44.671Z,150.90
2023-02-24T05:13:15.287Z,154.02
2023-02-24T05:15:45.301Z,159.38
2023-02-24T05:18:17.064Z,146.50
2023-02-24T05:21:08.596Z,154.80
2023-02-24T05:23:41.193Z,148.07
2023-02-24T05:26:09.166Z,146.13
2023-02-24T05:28:41.321Z,139.98
2023-02-24T05:33:44.196Z,145.57
2023-02-24T05:36:18.045Z,153.82
2023-02-24T05:38:47.150Z,165.77
2023-02-24T05:41:17.825Z,154.43
2023-02-24T05:43:53.124Z,149.57
2023-02-24T05:46:28.915Z,154.48
2023-02-24T05:48:57.497Z,144.30
2023-02-24T05:51:35.419Z,146.50
2023-02-24T05:54:08.695Z,148.02
2023-02-24T05:56:38.807Z,152.82
2023-02-24T05:59:10.834Z,156.82
2023-02-24T06:01:45.552Z,147.38
2023-02-24T06:04:20.951Z,162.00
2023-02-24T06:06:55.115Z,153.93
2023-02-24T06:09:23.407Z,141.00
2023-02-24T06:11:50.952Z,151.27
2023-02-24T06:14:18.385Z,141.80
2023-02-24T06:16:45.799Z,141.90
2023-02-24T06:19:13.711Z,143.18
2023-02-24T06:21:42.208Z,138.93
2023-02-24T06:24:15.282Z,141.82
2023-02-24T06:26:43.457Z,146.15
2023-02-24T06:29:17.717Z,154.18
2023-02-24T06:31:45.720Z,144.90
2023-02-24T06:34:18.432Z,135.77
2023-02-24T06:36:47.076Z,140.75
2023-02-24T06:39:14.796Z,138.35
2023-02-24T06:41:42.722Z,150.00
2023-02-24T06:44:10.275Z,141.40
2023-02-24T06:46:37.866Z,154.38
2023-02-24T06:49:05.236Z,142.85
2023-02-24T06:51:33.356Z,157.45
2023-02-24T06:54:00.737Z,167.38
2023-02-24T06:56:28.784Z,176.43
2023-02-24T06:58:56.977Z,148.88
2023-02-24T07:01:26.962Z,148.23
2023-02-24T07:04:02.344Z,158.68
2023-02-24T07:06:34.238Z,153.77
2023-02-24T07:09:08.627Z,161.52
2023-02-24T07:11:37.904Z,166.02
2023-02-24T07:14:08.293Z,156.05
2023-02-24T07:16:36.092Z,151.20
2023-02-24T07:19:11.319Z,156.68
2023-02-24T07:21:39.905Z,153.20
2023-02-24T07:24:08.851Z,153.18
2023-02-24T07:26:41.857Z,163.05
2023-02-24T07:29:11.473Z,149.80
2023-02-24T07:31:39.821Z,151.23
2023-02-24T07:34:07.666Z,144.05
2023-02-24T07:36:49.089Z,152.02
2023-02-24T07:39:18.473Z,148.23
2023-02-24T07:41:49.604Z,159.15
2023-02-24T07:44:19.071Z,168.55
2023-02-24T07:46:49.055Z,151.68
2023-02-24T07:49:25.885Z,150.75
2023-02-24T07:51:57.699Z,156.18
2023-02-24T07:54:30.665Z,162.35
2023-02-24T07:56:59.629Z,158.90
2023-02-24T07:59:33.004Z,155.27
2023-02-24T08:02:04.747Z,156.00
2023-02-24T08:04:33.709Z,164.68
2023-02-24T08:07:02.940Z,179.25
2023-02-24T08:09:44.923Z,165.10
2023-02-24T08:12:17.949Z,183.43
2023-02-24T08:14:50.845Z,168.00
2023-02-24T08:17:27.005Z,157.18
2023-02-24T08:20:29.117Z,164.27
2023-02-24T08:22:57.135Z,124.07
2023-02-24T08:25:35.580Z,153.35
2023-02-24T08:28:08.938Z,164.20
2023-02-24T08:30:45.602Z,167.15
2023-02-24T08:33:22.403Z,160.63
2023-02-24T08:36:01.115Z,158.85
2023-02-24T08:38:39.980Z,162.80
2023-02-24T08:41:22.087Z,159.93
2023-02-24T08:46:26.530Z,146.77
2023-02-24T08:48:57.634Z,146.38
2023-02-24T08:51:36.537Z,155.40
2023-02-24T08:54:11.143Z,145.05
2023-02-24T08:56:43.390Z,154.95
2023-02-24T08:59:36.801Z,153.60
2023-02-24T09:02:18.829Z,154.40
2023-02-24T09:04:48.795Z,147.45
2023-02-24T09:07:19.557Z,147.27
2023-02-24T09:09:47.065Z,159.50
2023-02-24T09:12:29.029Z,154.30
2023-02-24T09:15:01.230Z,158.15
2023-02-24T09:17:45.325Z,154.35
2023-02-24T09:20:34.943Z,158.15
2023-02-24T09:23:08.876Z,149.32
2023-02-24T09:25:41.643Z,164.25
2023-02-24T09:28:17.250Z,150.32
2023-02-24T09:30:55.567Z,150.35
2023-02-24T09:33:51.144Z,159.38
2023-02-24T09:36:20.353Z,151.65
2023-02-24T09:39:02.356Z,162.55
2023-02-24T09:42:01.944Z,154.57
2023-02-24T09:44:38.132Z,159.35
2023-02-24T09:47:31.333Z,156.90
2023-02-24T09:50:05.601Z,154.90
2023-02-24T09:52:41.950Z,150.13
2023-02-24T09:55:27.166Z,143.48
2023-02-24T09:58:29.351Z,148.20
2023-02-24T10:01:21.554Z,152.95
2023-02-24T10:04:18.501Z,147.05
2023-02-24T10:06:51.647Z,145.98
2023-02-24T10:09:34.867Z,142.98
2023-02-24T10:12:11.749Z,145.45
2023-02-24T10:15:21.155Z,157.77
2023-02-24T10:17:58.346Z,147.32
2023-02-24T10:20:53.228Z,137.65
2023-02-24T10:23:45.149Z,132.75
2023-02-24T10:26:32.960Z,133.13
2023-02-24T10:29:09.138Z,139.80
2023-02-24T10:31:48.017Z,133.45
2023-02-24T10:34:26.410Z,129.55
2023-02-24T10:36:57.584Z,129.52
2023-02-24T10:39:26.174Z,128.32
2023-02-24T10:42:15.641Z,136.93
2023-02-24T10:45:01.334Z,138.32
2023-02-24T10:47:31.239Z,139.85
2023-02-24T10:50:04.211Z,143.38
2023-02-24T10:52:37.373Z,148.10
2023-02-24T10:55:28.065Z,137.45
2023-02-24T10:58:07.868Z,132.85
2023-02-24T11:01:06.129Z,133.23
2023-02-24T11:03:43.719Z,134.98
2023-02-24T11:06:42.040Z,118.05
2023-02-24T11:09:29.953Z,120.32
2023-02-24T11:12:46.749Z,114.57
2023-02-24T11:15:46.716Z,112.28
2023-02-24T11:18:28.608Z,113.03
2023-02-24T11:21:01.937Z,120.03
2023-02-24T11:23:39.574Z,114.28
2023-02-24T11:26:17.743Z,122.47
2023-02-24T11:29:01.785Z,106.10
2023-02-24T11:32:03.417Z,105.25
2023-02-24T11:34:39.755Z,126.88
2023-02-24T11:37:31.087Z,116.38
2023-02-24T11:40:09.531Z,112.13
2023-02-24T11:42:38.973Z,107.05
2023-02-24T11:45:09.555Z,107.20
2023-02-24T11:47:47.460Z,122.03
2023-02-24T11:50:20.682Z,119.43
2023-02-24T11:52:52.067Z,114.47
2023-02-24T11:55:36.119Z,126.65
2023-02-24T11:58:12.643Z,116.45
2023-02-24T12:00:46.933Z,117.68
2023-02-24T12:03:25.580Z,114.97
2023-02-24T12:05:57.299Z,114.28
2023-02-24T12:08:32.044Z,119.38
2023-02-24T12:11:18.408Z,107.72
2023-02-24T12:14:15.191Z,103.35
2023-02-24T12:16:48.899Z,96.95
2023-02-24T12:19:24.322Z,95.68
2023-02-24T12:21:58.282Z,96.60
2023-02-24T12:24:25.706Z,91.57
2023-02-24T12:26:56.217Z,93.78
2023-02-24T12:29:54.664Z,100.65
2023-02-24T12:32:41.445Z,90.20
2023-02-24T12:35:32.992Z,98.25
2023-02-24T12:38:35.995Z,96.45
2023-02-24T12:41:13.743Z,90.78
2023-02-24T12:44:07.618Z,95.00
2023-02-24T12:46:37.611Z,96.70
2023-02-24T12:49:23.111Z,83.60
2023-02-24T12:51:59.173Z,90.25
2023-02-24T12:54:35.873Z,87.25
2023-02-24T12:57:21.326Z,87.63
2023-02-24T12:59:49.730Z,102.97
2023-02-24T13:02:37.991Z,92.03
2023-02-24T13:05:19.012Z,94.65
2023-02-24T13:08:09.443Z,86.95
2023-02-24T13:10:49.223Z,98.80
2023-02-24T13:13:40.503Z,100.75
2023-02-24T13:16:13.416Z,103.47
2023-02-24T13:18:41.038Z,91.53
2023-02-24T13:21:23.050Z,87.15
2023-02-24T13:24:01.098Z,83.63
2023-02-24T13:26:33.025Z,87.70
2023-02-24T13:29:11.765Z,116.05
2023-02-24T13:31:48.511Z,95.30
2023-02-24T13:34:41.793Z,93.03
2023-02-24T13:37:09.991Z,87.65
2023-02-24T13:39:41.550Z,85.88
2023-02-24T13:42:30.409Z,79.55
2023-02-24T13:45:06.012Z,79.32
2023-02-24T13:48:13.576Z,82.43
2023-02-24T13:51:12.945Z,77.50
2023-02-24T13:53:46.320Z,118.13
2023-02-24T13:56:25.389Z,83.45
2023-02-24T13:59:24.127Z,85.82
2023-02-24T14:01:59.110Z,82.65
2023-02-24T14:04:33.801Z,80.55
2023-02-24T14:07:04.667Z,76.55
2023-02-24T14:09:50.394Z,73.90
2023-02-24T14:12:30.875Z,79.82
2023-02-24T14:14:59.046Z,77.32
2023-02-24T14:17:34.165Z,75.18
2023-02-24T14:20:07.438Z,76.40
2023-02-24T14:22:37.542Z,88.93
2023-02-24T14:25:06.034Z,75.68
2023-02-24T14:27:33.474Z,78.80
2023-02-24T14:30:03.859Z,72.35
2023-02-24T14:32:33.729Z,77.63
2023-02-24T14:35:01.156Z,74.53
2023-02-24T14:37:30.989Z,73.72
2023-02-24T14:40:05.922Z,74.72
2023-02-24T14:42:33.425Z,81.45
2023-02-24T14:45:01.256Z,79.72
2023-02-24T14:47:29.175Z,77.43
2023-02-24T14:50:02.411Z,71.55
2023-02-24T14:52:39.463Z,74.32
2023-02-24T14:55:22.124Z,75.65
2023-02-24T14:57:58.258Z,75.35
2023-02-24T15:00:45.900Z,80.60
2023-02-24T15:03:24.159Z,79.95
2023-02-24T15:05:55.688Z,81.70
2023-02-24T15:08:46.374Z,82.38
2023-02-24T15:11:16.662Z,73.75
2023-02-24T15:13:57.994Z,80.78
2023-02-24T15:16:36.723Z,79.32
2023-02-24T15:19:04.976Z,71.25
2023-02-24T15:21:40.813Z,81.30
2023-02-24T15:24:21.299Z,87.35
2023-02-24T15:26:59.411Z,85.45
2023-02-24T15:29:29.696Z,80.43
2023-02-24T15:32:00.002Z,82.45
2023-02-24T15:34:31.170Z,76.55
2023-02-24T15:37:04.507Z,85.88
2023-02-24T15:39:34.280Z,82.03
2023-02-24T15:42:21.998Z,77.75
2023-02-24T15:44:55.497Z,88.40
2023-02-24T15:47:26.802Z,83.20
2023-02-24T15:49:54.305Z,76.90
2023-02-24T15:52:28.120Z,80.80
2023-02-24T15:54:57.998Z,81.15
2023-02-24T15:57:26.108Z,80.50
2023-02-24T15:59:54.138Z,77.22
2023-02-24T16:02:23.000Z,79.63
2023-02-24T16:04:51.728Z,80.05
2023-02-24T16:07:26.080Z,81.85
2023-02-24T16:09:55.004Z,83.10
2023-02-24T16:12:39.460Z,83.15
2023-02-24T16:15:14.294Z,75.88
2023-02-24T16:17:42.968Z,82.13
2023-02-24T16:20:27.375Z,82.07
2023-02-24T16:23:00.081Z,78.55
2023-02-24T16:25:29.186Z,76.35
2023-02-24T16:27:59.384Z,81.20
2023-02-24T16:30:30.518Z,72.03
2023-02-24T16:32:59.528Z,88.80
2023-02-24T16:35:28.262Z,82.30
2023-02-24T16:37:55.810Z,81.70
2023-02-24T16:40:23.362Z,89.53
2023-02-24T16:42:52.437Z,81.72
2023-02-24T16:45:27.077Z,86.15
2023-02-24T16:47:56.365Z,79.82
2023-02-24T16:50:30.850Z,82.88
2023-02-24T16:52:58.240Z,82.78
2023-02-24T16:55:26.525Z,91.20
2023-02-24T16:57:53.934Z,89.95
2023-02-24T17:00:24.330Z,90.95
2023-02-24T17:02:52.934Z,91.75
2023-02-24T17:05:25.548Z,92.53
2023-02-24T17:07:57.053Z,90.40
2023-02-24T17:10:25.696Z,79.05
2023-02-24T17:12:53.098Z,83.30
2023-02-24T17:15:25.061Z,87.75
2023-02-24T17:17:52.442Z,83.63
2023-02-24T17:20:20.623Z,81.22
2023-02-24T17:22:48.189Z,82.40
2023-02-24T17:25:25.603Z,83.60
2023-02-24T17:27:54.466Z,87.85
2023-02-24T17:30:30.874Z,84.15
2023-02-24T17:32:58.321Z,87.50
2023-02-24T17:35:26.957Z,88.95
2023-02-24T17:37:54.980Z,87.03
2023-02-24T17:40:22.792Z,89.32
2023-02-24T17:42:50.162Z,89.93
2023-02-24T17:45:18.144Z,90.30
2023-02-24T17:47:45.626Z,92.35
2023-02-24T17:50:13.611Z,88.70
2023-02-24T17:52:41.203Z,91.22
2023-02-24T17:55:09.364Z,87.35
2023-02-24T17:57:39.667Z,91.88
2023-02-24T18:00:08.692Z,92.10
2023-02-24T18:02:42.264Z,90.07
2023-02-24T18:05:10.308Z,83.68
2023-02-24T18:07:38.671Z,95.30
2023-02-24T18:10:06.758Z,89.97
2023-02-24T18:12:34.195Z,92.57
2023-02-24T18:15:08.637Z,88.97
2023-02-24T18:17:38.169Z,90.18
2023-02-24T18:20:07.475Z,92.60
2023-02-24T18:22:35.819Z,98.32
2023-02-24T18:25:03.527Z,92.32
2023-02-24T18:27:30.904Z,91.03
2023-02-24T18:29:58.286Z,92.57
2023-02-24T18:32:25.806Z,93.72
2023-02-24T18:34:53.294Z,99.30
2023-02-24T18:37:22.103Z,91.05
2023-02-24T18:39:50.811Z,107.50
2023-02-24T18:42:18.601Z,100.13
2023-02-24T18:44:46.082Z,100.97
2023-02-24T18:47:13.485Z,94.78
2023-02-24T18:49:40.854Z,97.03
2023-02-24T18:52:08.369Z,96.63
2023-02-24T18:54:35.800Z,90.43
2023-02-24T18:57:03.184Z,92.95
2023-02-24T18:59:31.538Z,98.00
2023-02-24T19:01:59.043Z,102.25
2023-02-24T19:04:26.569Z,106.40
2023-02-24T19:06:53.967Z,96.65
2023-02-24T19:09:22.400Z,103.63
2023-02-24T19:11:50.934Z,108.43
2023-02-24T19:14:20.987Z,107.10
2023-02-24T19:16:48.502Z,96.60
2023-02-24T19:19:16.853Z,104.18
2023-02-24T19:21:48.458Z,98.63
2023-02-24T19:24:17.387Z,102.22
2023-02-24T19:26:45.907Z,110.32
2023-02-24T19:29:13.834Z,102.97
2023-02-24T19:31:41.326Z,104.45
2023-02-24T19:34:11.724Z,101.78
2023-02-24T19:36:39.580Z,103.55
2023-02-24T19:39:14.377Z,111.45
2023-02-24T19:41:41.796Z,115.30
2023-02-24T19:44:10.360Z,117.85
2023-02-24T19:46:38.988Z,115.82
2023-02-24T19:49:06.809Z,106.65
2023-02-24T19:51:34.240Z,107.07
2023-02-24T19:54:03.436Z,108.35
2023-02-24T19:56:33.295Z,109.38
2023-02-24T19:59:02.350Z,102.13
2023-02-24T20:01:30.574Z,113.25
2023-02-24T20:04:00.830Z,105.95
2023-02-24T20:06:31.832Z,107.05
2023-02-24T20:09:00.360Z,109.47
2023-02-24T20:11:32.931Z,112.13
2023-02-24T20:14:00.298Z,114.03
2023-02-24T20:16:32.468Z,112.88
2023-02-24T20:21:28.328Z,101.85
2023-02-24T20:23:58.313Z,105.82
2023-02-24T20:26:25.766Z,107.53
2023-02-24T20:28:53.178Z,110.65
2023-02-24T20:31:21.140Z,101.13
2023-02-24T20:33:50.022Z,116.05
2023-02-24T20:36:20.575Z,120.20
2023-02-24T20:38:48.987Z,130.75
2023-02-24T20:41:17.601Z,110.90
2023-02-24T20:43:45.111Z,108.55
2023-02-24T20:46:19.836Z,119.43
2023-02-24T20:48:47.615Z,120.97
2023-02-24T20:51:15.434Z,121.70
2023-02-24T20:53:56.528Z,116.22
2023-02-24T20:56:26.680Z,126.93
2023-02-24T20:59:09.360Z,116.03
2023-02-24T21:01:36.905Z,120.72
2023-02-24T21:04:05.209Z,127.80
2023-02-24T21:06:33.038Z,119.53
2023-02-24T21:09:00.578Z,116.03
2023-02-24T21:11:30.127Z,121.88
2023-02-24T21:13:58.496Z,116.43
2023-02-24T21:16:27.010Z,118.30
2023-02-24T21:18:55.891Z,112.13
2023-02-24T21:21:23.461Z,114.38
2023-02-24T21:23:51.469Z,111.55
2023-02-24T21:26:19.434Z,110.82
2023-02-24T21:28:50.154Z,124.32
2023-02-24T21:31:20.420Z,118.28
2023-02-24T21:33:52.790Z,126.20
2023-02-24T21:38:49.377Z,123.93
2023-02-24T21:41:19.331Z,125.63
2023-02-24T21:43:47.415Z,136.27
2023-02-24T21:46:15.989Z,125.97
2023-02-24T21:48:43.512Z,125.70
2023-02-24T21:51:12.700Z,122.50
2023-02-24T21:53:43.586Z,125.72
2023-02-24T21:56:17.248Z,123.82
2023-02-24T21:58:48.461Z,126.40
2023-02-24T22:01:19.143Z,125.15
2023-02-24T22:03:46.682Z,131.38
2023-02-24T22:06:15.781Z,123.60
2023-02-24T22:08:43.826Z,124.57
2023-02-24T22:11:14.425Z,137.35
2023-02-24T22:13:42.879Z,133.45
2023-02-24T22:16:13.880Z,140.40
2023-02-24T22:18:41.711Z,136.68
2023-02-24T22:21:11.776Z,128.27
2023-02-24T22:23:39.848Z,127.90
2023-02-24T22:26:09.488Z,135.40
2023-02-24T22:28:39.919Z,129.60
2023-02-24T22:31:10.007Z,127.88
2023-02-24T22:33:40.975Z,135.65
2023-02-24T22:36:11.712Z,124.45
2023-02-24T22:38:40.464Z,127.28
2023-02-24T22:41:13.200Z,134.95
2023-02-24T22:43:40.684Z,140.52
2023-02-24T22:46:11.626Z,136.10
2023-02-24T22:48:39.401Z,132.82
2023-02-24T22:51:09.636Z,135.02
2023-02-24T22:53:39.686Z,129.10
2023-02-24T22:56:07.718Z,136.32
2023-02-24T22:58:35.136Z,153.10
2023-02-24T23:01:07.875Z,144.60
2023-02-24T23:03:35.394Z,135.82
2023-02-24T23:06:06.007Z,135.95
2023-02-24T23:08:36.389Z,138.07
2023-02-24T23:11:12.131Z,152.05
2023-02-24T23:13:41.035Z,150.55
2023-02-24T23:16:11.534Z,137.77
2023-02-24T23:18:38.976Z,147.80
2023-02-24T23:21:09.186Z,144.38
2023-02-24T23:23:37.869Z,147.07
2023-02-24T23:26:06.073Z,145.75
2023-02-24T23:28:35.685Z,148.95
2023-02-24T23:31:03.394Z,148.52
2023-02-24T23:33:30.878Z,152.23
2023-02-24T23:36:06.853Z,134.63
2023-02-24T23:38:34.610Z,149.38
2023-02-24T23:41:08.759Z,144.82
2023-02-24T23:43:36.462Z,154.27
2023-02-24T23:46:08.828Z,148.52
2023-02-24T23:48:37.226Z,144.68
2023-02-24T23:51:13.375Z,158.60
2023-02-24T23:53:43.565Z,153.32
2023-02-24T23:56:16.741Z,165.43
2023-02-24T23:58:44.815Z,156.30
